createdAt,value
2018-12-13T00:00:49.891Z,99.90
2018-12-13T00:03:18.106Z,99.90
2018-12-13T00:05:46.485Z,99.90
2018-12-13T00:08:14.722Z,99.90
2018-12-13T00:10:42.999Z,99.90
2018-12-13T00:13:11.336Z,99.90
2018-12-13T00:15:39.610Z,99.90
2018-12-13T00:18:08.098Z,99.90
2018-12-13T00:20:36.958Z,99.90
2018-12-13T00:23:05.302Z,99.90
2018-12-13T00:25:33.570Z,99.90
2018-12-13T00:28:01.917Z,99.90
2018-12-13T00:30:30.498Z,99.90
2018-12-13T00:32:58.758Z,99.90
2018-12-13T00:35:27.124Z,99.90
2018-12-13T00:37:55.425Z,99.90
2018-12-13T00:40:23.765Z,99.90
2018-12-13T00:42:52.121Z,99.90
2018-12-13T00:45:20.376Z,99.90
2018-12-13T00:47:48.772Z,99.90
2018-12-13T00:50:17.002Z,99.90
2018-12-13T00:52:45.408Z,99.90
2018-12-13T00:55:13.722Z,99.90
2018-12-13T00:57:42.150Z,99.90
2018-12-13T01:00:11.328Z,99.90
2018-12-13T01:02:40.125Z,99.90
2018-12-13T01:05:08.364Z,99.90
2018-12-13T01:07:36.678Z,99.90
2018-12-13T01:10:05.264Z,99.90
2018-12-13T01:12:33.814Z,99.90
2018-12-13T01:15:02.068Z,99.90
2018-12-13T01:17:30.380Z,99.90
2018-12-13T01:19:58.650Z,99.90
2018-12-13T01:22:27.522Z,99.90
2018-12-13T01:24:55.813Z,99.90
2018-12-13T01:27:24.606Z,99.90
2018-12-13T01:29:53.196Z,99.90
2018-12-13T01:32:21.486Z,99.90
2018-12-13T01:34:49.787Z,99.90
2018-12-13T01:37:18.026Z,99.90
2018-12-13T01:39:46.372Z,99.90
2018-12-13T01:42:14.669Z,99.90
2018-12-13T01:44:43.164Z,99.90
2018-12-13T01:47:11.426Z,99.90
2018-12-13T01:49:39.731Z,99.90
2018-12-13T01:52:07.999Z,99.90
2018-12-13T01:54:36.378Z,99.90
2018-12-13T01:57:04.764Z,99.90
2018-12-13T01:59:33.049Z,99.90
2018-12-13T02:02:01.375Z,99.90
2018-12-13T02:04:29.683Z,99.90
2018-12-13T02:06:58.770Z,99.90
2018-12-13T02:09:27.474Z,99.90
2018-12-13T02:11:56.424Z,99.90
2018-12-13T02:14:24.834Z,99.90
2018-12-13T02:16:53.144Z,99.90
2018-12-13T02:19:21.457Z,99.90
2018-12-13T02:21:49.810Z,99.90
2018-12-13T02:24:18.155Z,99.90
2018-12-13T02:26:47.145Z,99.90
2018-12-13T02:29:15.452Z,99.90
2018-12-13T02:31:43.777Z,99.90
2018-12-13T02:34:12.045Z,99.90
2018-12-13T02:36:40.374Z,99.90
2018-12-13T02:39:08.602Z,99.90
2018-12-13T02:41:37.029Z,99.90
2018-12-13T02:44:05.339Z,99.90
2018-12-13T02:46:33.675Z,99.90
2018-12-13T02:49:07.474Z,99.90
2018-12-13T02:51:41.076Z,99.90
2018-12-13T02:54:09.391Z,99.90
2018-12-13T02:56:37.792Z,99.90
2018-12-13T02:59:06.181Z,99.90
2018-12-13T03:01:36.539Z,99.90
2018-12-13T03:04:04.952Z,99.90
2018-12-13T03:06:34.527Z,99.90
2018-12-13T03:09:07.381Z,99.90
2018-12-13T03:11:35.773Z,99.90
2018-12-13T03:14:07.420Z,99.90
2018-12-13T03:16:38.854Z,99.90
2018-12-13T03:19:08.749Z,99.90
2018-12-13T03:21:39.037Z,99.90
2018-12-13T03:24:07.641Z,99.90
2018-12-13T03:26:36.114Z,99.90
2018-12-13T03:29:04.720Z,99.90
2018-12-13T03:31:37.517Z,99.90
2018-12-13T03:34:07.842Z,99.90
2018-12-13T03:36:44.584Z,99.90
2018-12-13T03:39:19.325Z,99.90
2018-12-13T03:41:48.059Z,99.90
2018-12-13T03:44:20.986Z,99.90
2018-12-13T03:46:51.141Z,99.90
2018-12-13T03:49:20.838Z,99.90
2018-12-13T03:51:52.284Z,99.90
2018-12-13T03:54:21.074Z,99.90
2018-12-13T03:56:49.512Z,99.90
2018-12-13T03:59:17.762Z,99.90
2018-12-13T04:01:46.136Z,99.90
2018-12-13T04:04:14.595Z,99.90
2018-12-13T04:07:01.058Z,99.90
2018-12-13T04:09:29.370Z,99.90
2018-12-13T04:11:57.780Z,99.90
2018-12-13T04:14:26.091Z,99.90
2018-12-13T04:16:54.483Z,99.90
2018-12-13T04:19:25.491Z,99.90
2018-12-13T04:21:55.801Z,99.90
2018-12-13T04:24:26.028Z,99.90
2018-12-13T04:26:57.213Z,99.90
2018-12-13T04:29:28.042Z,99.90
2018-12-13T04:31:59.273Z,99.90
2018-12-13T04:34:29.987Z,99.90
2018-12-13T04:37:00.478Z,99.90
2018-12-13T04:39:31.410Z,99.90
2018-12-13T04:42:02.540Z,99.90
2018-12-13T04:44:31.459Z,99.90
2018-12-13T04:47:00.633Z,99.90
2018-12-13T04:49:30.229Z,99.90
2018-12-13T04:51:59.374Z,99.90
2018-12-13T04:54:27.808Z,99.90
2018-12-13T04:56:56.215Z,99.90
2018-12-13T04:59:24.549Z,99.90
2018-12-13T05:01:52.949Z,99.90
2018-12-13T05:06:52.703Z,99.90
2018-12-13T05:12:29.423Z,99.90
2018-12-13T05:14:58.695Z,99.90
2018-12-13T05:17:26.970Z,99.90
2018-12-13T05:19:55.338Z,99.90
2018-12-13T05:22:23.695Z,99.90
2018-12-13T05:24:51.885Z,99.90
2018-12-13T05:27:20.496Z,99.90
2018-12-13T05:29:48.830Z,99.90
2018-12-13T05:32:17.198Z,99.90
2018-12-13T05:34:46.491Z,99.90
2018-12-13T05:37:14.863Z,99.90
2018-12-13T05:39:43.084Z,99.90
2018-12-13T05:42:11.716Z,99.90
2018-12-13T05:44:40.415Z,99.90
2018-12-13T05:47:09.237Z,99.90
2018-12-13T05:49:38.500Z,99.90
2018-12-13T05:52:07.707Z,99.90
2018-12-13T05:54:36.031Z,99.90
2018-12-13T05:57:04.682Z,99.90
2018-12-13T05:59:33.558Z,99.90
2018-12-13T06:02:02.095Z,99.90
2018-12-13T06:04:33.793Z,99.90
2018-12-13T06:07:02.135Z,99.90
2018-12-13T06:09:30.979Z,99.90
2018-12-13T06:11:59.366Z,99.90
2018-12-13T06:14:27.728Z,99.90
2018-12-13T06:16:56.043Z,99.90
2018-12-13T06:19:26.848Z,99.90
2018-12-13T06:21:54.655Z,99.90
2018-12-13T06:24:23.011Z,99.90
2018-12-13T06:26:51.359Z,99.90
2018-12-13T06:29:19.755Z,99.90
2018-12-13T06:31:48.141Z,99.90
2018-12-13T06:34:17.167Z,99.90
2018-12-13T06:36:45.498Z,99.90
2018-12-13T06:39:14.650Z,99.90
2018-12-13T06:41:42.897Z,99.90
2018-12-13T06:44:11.148Z,99.90
2018-12-13T06:46:39.462Z,99.90
2018-12-13T06:49:07.733Z,99.90
2018-12-13T06:51:36.422Z,99.90
2018-12-13T06:54:04.689Z,99.90
2018-12-13T06:56:32.935Z,99.90
2018-12-13T06:59:01.346Z,99.90
2018-12-13T07:01:30.160Z,99.90
2018-12-13T07:03:58.513Z,99.90
2018-12-13T07:06:27.249Z,99.90
2018-12-13T07:08:55.632Z,99.90
2018-12-13T07:11:23.932Z,99.90
2018-12-13T07:13:52.309Z,99.90
2018-12-13T07:16:20.786Z,99.90
2018-12-13T07:18:49.114Z,99.90
2018-12-13T07:21:17.400Z,99.90
2018-12-13T07:23:45.701Z,99.90
2018-12-13T07:26:14.188Z,99.90
2018-12-13T07:28:42.505Z,99.90
2018-12-13T07:31:11.746Z,99.90
2018-12-13T07:33:39.993Z,99.90
2018-12-13T07:36:08.553Z,99.90
2018-12-13T07:38:37.270Z,99.90
2018-12-13T07:41:06.651Z,99.90
2018-12-13T07:43:35.737Z,99.90
2018-12-13T07:46:04.041Z,99.90
2018-12-13T07:48:32.989Z,99.90
2018-12-13T07:51:02.594Z,99.90
2018-12-13T07:53:31.591Z,99.90
2018-12-13T07:56:00.499Z,99.90
2018-12-13T07:58:28.876Z,99.90
2018-12-13T08:00:57.120Z,99.90
2018-12-13T08:03:25.506Z,99.90
2018-12-13T08:05:55.537Z,99.90
2018-12-13T08:08:24.051Z,99.90
2018-12-13T08:10:52.372Z,99.90
2018-12-13T08:13:20.973Z,99.90
2018-12-13T08:15:50.083Z,99.90
2018-12-13T08:18:18.830Z,99.90
2018-12-13T08:20:47.110Z,99.90
2018-12-13T08:23:15.879Z,99.90
2018-12-13T08:25:44.221Z,99.90
2018-12-13T08:28:13.418Z,99.90
2018-12-13T08:30:41.690Z,99.90
2018-12-13T08:33:10.068Z,99.90
2018-12-13T08:35:38.341Z,99.90
2018-12-13T08:38:06.924Z,99.90
2018-12-13T08:40:35.503Z,99.90
2018-12-13T08:43:04.689Z,99.90
2018-12-13T08:45:32.947Z,99.90
2018-12-13T08:48:01.293Z,99.90
2018-12-13T08:50:30.376Z,99.90
2018-12-13T08:52:59.419Z,99.90
2018-12-13T08:55:28.130Z,99.90
2018-12-13T08:57:57.938Z,99.90
2018-12-13T09:00:26.269Z,99.90
2018-12-13T09:02:54.544Z,99.90
2018-12-13T09:05:22.859Z,99.90
2018-12-13T09:07:51.272Z,99.90
2018-12-13T09:10:20.841Z,99.90
2018-12-13T09:12:49.430Z,99.90
2018-12-13T09:15:17.850Z,99.90
2018-12-13T09:17:46.121Z,99.70
2018-12-13T09:20:16.652Z,99.90
2018-12-13T09:22:46.880Z,99.50
2018-12-13T09:25:16.706Z,98.40
2018-12-13T09:27:48.092Z,98.90
2018-12-13T09:30:16.559Z,98.10
2018-12-13T09:32:45.121Z,98.80
2018-12-13T09:35:32.093Z,98.60
2018-12-13T09:38:00.326Z,97.70
2018-12-13T09:40:28.727Z,98.00
2018-12-13T09:42:57.732Z,97.80
2018-12-13T09:45:26.125Z,97.70
2018-12-13T09:47:54.536Z,96.70
2018-12-13T09:50:24.560Z,97.40
2018-12-13T09:52:53.317Z,96.10
2018-12-13T09:55:21.690Z,96.90
2018-12-13T09:57:50.172Z,95.90
2018-12-13T10:00:18.561Z,95.80
2018-12-13T10:02:46.865Z,95.60
2018-12-13T10:05:15.195Z,94.60
2018-12-13T10:07:45.008Z,95.80
2018-12-13T10:10:13.602Z,95.10
2018-12-13T10:12:41.971Z,95.60
2018-12-13T10:15:10.386Z,95.30
2018-12-13T10:17:38.688Z,95.10
2018-12-13T10:20:07.248Z,95.20
2018-12-13T10:22:35.633Z,92.80
2018-12-13T10:25:09.528Z,93.40
2018-12-13T10:27:37.778Z,92.80
2018-12-13T10:30:06.663Z,93.50
2018-12-13T10:32:34.968Z,92.70
2018-12-13T10:35:03.364Z,93.20
2018-12-13T10:37:31.831Z,91.90
2018-12-13T10:40:00.799Z,93.00
2018-12-13T10:42:29.230Z,92.30
2018-12-13T10:44:57.535Z,91.50
2018-12-13T10:47:25.790Z,90.80
2018-12-13T10:49:54.220Z,92.00
2018-12-13T10:52:22.516Z,91.50
2018-12-13T10:54:51.399Z,91.40
2018-12-13T10:57:20.220Z,90.70
2018-12-13T11:00:12.728Z,91.00
2018-12-13T11:02:55.270Z,91.40
2018-12-13T11:05:24.064Z,90.70
2018-12-13T11:07:52.403Z,90.90
2018-12-13T11:10:25.361Z,89.50
2018-12-13T11:12:51.287Z,91.10
2018-12-13T11:15:19.550Z,91.20
2018-12-13T11:17:48.067Z,91.00
2018-12-13T11:20:16.341Z,90.70
2018-12-13T11:22:44.608Z,88.80
2018-12-13T11:25:12.877Z,89.90
2018-12-13T11:29:56.786Z,90.50
2018-12-13T11:32:26.101Z,90.70
2018-12-13T11:34:54.405Z,90.40
2018-12-13T11:37:22.653Z,90.90
2018-12-13T11:39:50.994Z,91.20
2018-12-13T11:42:19.467Z,91.60
2018-12-13T11:44:47.839Z,90.40
2018-12-13T11:47:16.830Z,90.80
2018-12-13T11:49:45.143Z,91.40
2018-12-13T11:52:13.490Z,91.80
2018-12-13T11:54:44.162Z,91.80
2018-12-13T11:57:12.685Z,91.40
2018-12-13T11:59:41.060Z,91.00
2018-12-13T12:02:09.338Z,91.60
2018-12-13T12:04:37.634Z,91.20
2018-12-13T12:07:06.326Z,91.70
2018-12-13T12:09:34.952Z,91.30
2018-12-13T12:12:03.785Z,91.30
2018-12-13T12:14:32.224Z,91.00
2018-12-13T12:17:00.611Z,91.50
2018-12-13T12:19:28.984Z,91.40
2018-12-13T12:21:59.527Z,91.00
2018-12-13T12:24:27.881Z,91.80
2018-12-13T12:26:57.706Z,91.40
2018-12-13T12:29:27.267Z,91.30
2018-12-13T12:31:56.927Z,91.90
2018-12-13T12:34:25.245Z,91.70
2018-12-13T12:36:54.869Z,91.30
2018-12-13T12:39:24.379Z,91.40
2018-12-13T12:41:54.513Z,91.40
2018-12-13T12:44:26.243Z,91.10
2018-12-13T12:46:55.691Z,91.50
2018-12-13T12:49:25.512Z,92.30
2018-12-13T12:51:55.185Z,92.40
2018-12-13T12:54:24.846Z,91.90
2018-12-13T12:56:55.304Z,92.20
2018-12-13T12:59:24.894Z,92.30
2018-12-13T13:01:54.707Z,92.00
2018-12-13T13:04:24.341Z,92.20
2018-12-13T13:06:54.558Z,92.30
2018-12-13T13:09:25.152Z,93.20
2018-12-13T13:11:56.398Z,93.10
2018-12-13T13:14:26.105Z,92.90
2018-12-13T13:16:55.640Z,92.80
2018-12-13T13:19:24.443Z,92.50
2018-12-13T13:21:54.089Z,92.40
2018-12-13T13:24:23.628Z,92.10
2018-12-13T13:26:52.761Z,92.30
2018-12-13T13:29:24.660Z,92.10
2018-12-13T13:31:54.424Z,92.20
2018-12-13T13:34:22.891Z,92.30
2018-12-13T13:36:51.172Z,91.60
2018-12-13T13:39:19.816Z,92.00
2018-12-13T13:41:48.141Z,92.30
2018-12-13T13:44:18.991Z,92.20
2018-12-13T13:46:49.028Z,91.60
2018-12-13T13:49:18.131Z,92.10
2018-12-13T13:51:46.397Z,92.50
2018-12-13T13:54:14.779Z,92.50
2018-12-13T13:56:43.070Z,92.30
2018-12-13T13:59:14.122Z,92.60
2018-12-13T14:01:42.456Z,92.70
2018-12-13T14:04:11.874Z,93.30
2018-12-13T14:06:40.303Z,93.00
2018-12-13T14:09:08.859Z,93.20
2018-12-13T14:11:37.197Z,93.00
2018-12-13T14:14:05.449Z,93.30
2018-12-13T14:16:33.851Z,93.20
2018-12-13T14:19:02.313Z,93.10
2018-12-13T14:21:30.662Z,93.40
2018-12-13T14:23:58.943Z,92.50
2018-12-13T14:26:27.304Z,93.00
2018-12-13T14:28:55.902Z,92.40
2018-12-13T14:31:25.580Z,92.70
2018-12-13T14:33:53.839Z,92.80
2018-12-13T14:36:22.112Z,93.50
2018-12-13T14:38:50.331Z,93.70
2018-12-13T14:41:20.397Z,93.10
2018-12-13T14:43:48.643Z,93.50
2018-12-13T14:46:16.997Z,93.00
2018-12-13T14:48:45.354Z,93.30
2018-12-13T14:51:13.613Z,92.60
2018-12-13T14:53:41.962Z,93.20
2018-12-13T14:56:10.293Z,93.40
2018-12-13T14:58:38.658Z,93.40
2018-12-13T15:01:07.079Z,93.40
2018-12-13T15:03:36.056Z,93.70
2018-12-13T15:06:04.303Z,93.60
2018-12-13T15:08:32.774Z,93.40
2018-12-13T15:11:01.383Z,93.60
2018-12-13T15:13:30.042Z,93.50
2018-12-13T15:15:58.448Z,93.70
2018-12-13T15:18:26.737Z,93.80
2018-12-13T15:20:55.025Z,93.90
2018-12-13T15:23:23.307Z,93.80
2018-12-13T15:25:51.589Z,93.90
2018-12-13T15:28:19.863Z,93.90
2018-12-13T15:30:48.141Z,93.90
2018-12-13T15:33:16.645Z,93.90
2018-12-13T15:35:45.154Z,93.70
2018-12-13T15:38:13.495Z,93.90
2018-12-13T15:40:41.823Z,94.20
2018-12-13T15:43:10.129Z,94.30
2018-12-13T15:45:38.867Z,94.40
2018-12-13T15:48:07.385Z,94.80
2018-12-13T15:50:35.685Z,94.60
2018-12-13T15:53:04.195Z,94.50
2018-12-13T15:55:32.536Z,94.80
2018-12-13T15:58:00.835Z,94.90
2018-12-13T16:00:29.782Z,94.90
2018-12-13T16:02:59.784Z,94.70
2018-12-13T16:05:28.670Z,94.60
2018-12-13T16:07:57.132Z,94.70
2018-12-13T16:10:25.515Z,95.10
2018-12-13T16:12:53.792Z,94.90
2018-12-13T16:15:22.171Z,94.70
2018-12-13T16:17:50.478Z,95.10
2018-12-13T16:20:20.005Z,95.10
2018-12-13T16:22:48.351Z,95.10
2018-12-13T16:25:16.962Z,95.20
2018-12-13T16:27:45.449Z,95.10
2018-12-13T16:30:13.806Z,95.20
2018-12-13T16:32:42.201Z,95.40
2018-12-13T16:35:10.572Z,95.50
2018-12-13T16:37:38.891Z,95.30
2018-12-13T16:40:10.468Z,95.20
2018-12-13T16:42:39.055Z,95.60
2018-12-13T16:45:07.585Z,95.10
2018-12-13T16:47:35.965Z,95.50
2018-12-13T16:50:04.637Z,95.30
2018-12-13T16:52:33.054Z,95.40
2018-12-13T16:55:02.307Z,95.30
2018-12-13T16:57:30.668Z,95.30
2018-12-13T16:59:59.219Z,95.30
2018-12-13T17:02:27.652Z,95.90
2018-12-13T17:04:55.958Z,95.60
2018-12-13T17:07:27.854Z,95.40
2018-12-13T17:09:57.515Z,95.90
2018-12-13T17:12:26.388Z,95.80
2018-12-13T17:14:55.748Z,95.50
2018-12-13T17:17:24.531Z,95.20
2018-12-13T17:19:53.671Z,96.00
2018-12-13T17:22:21.964Z,95.50
2018-12-13T17:24:50.242Z,95.40
2018-12-13T17:27:18.596Z,95.50
2018-12-13T17:29:46.917Z,95.20
2018-12-13T17:32:15.221Z,95.30
2018-12-13T17:34:44.121Z,95.20
2018-12-13T17:37:12.374Z,95.00
2018-12-13T17:39:40.708Z,94.90
2018-12-13T17:42:08.957Z,95.00
2018-12-13T17:44:37.529Z,94.90
2018-12-13T17:47:05.859Z,94.80
2018-12-13T17:49:34.238Z,95.20
2018-12-13T17:52:02.698Z,94.60
2018-12-13T17:54:33.228Z,94.60
2018-12-13T17:57:04.368Z,94.60
2018-12-13T17:59:32.613Z,94.50
2018-12-13T18:02:01.290Z,94.30
2018-12-13T18:04:29.555Z,94.50
2018-12-13T18:06:57.916Z,94.20
2018-12-13T18:09:26.170Z,94.10
2018-12-13T18:11:54.774Z,94.20
2018-12-13T18:14:23.196Z,94.40
2018-12-13T18:16:51.953Z,94.30
2018-12-13T18:19:20.381Z,94.40
2018-12-13T18:21:48.700Z,94.20
2018-12-13T18:24:16.946Z,94.10
2018-12-13T18:26:45.316Z,94.10
2018-12-13T18:29:13.722Z,94.10
2018-12-13T18:31:42.098Z,94.20
2018-12-13T18:34:12.852Z,94.50
2018-12-13T18:36:41.263Z,94.50
2018-12-13T18:39:09.534Z,94.10
2018-12-13T18:41:38.196Z,93.80
2018-12-13T18:44:06.665Z,93.90
2018-12-13T18:46:35.342Z,93.60
2018-12-13T18:49:03.833Z,93.90
2018-12-13T18:51:32.134Z,93.90
2018-12-13T18:54:00.425Z,93.70
2018-12-13T18:56:28.861Z,93.80
2018-12-13T18:58:58.459Z,93.60
2018-12-13T19:01:26.740Z,93.70
2018-12-13T19:03:55.222Z,94.20
2018-12-13T19:06:23.671Z,93.80
2018-12-13T19:08:52.147Z,93.30
2018-12-13T19:11:20.484Z,93.80
2018-12-13T19:13:48.770Z,93.90
2018-12-13T19:16:17.066Z,94.00
2018-12-13T19:18:45.421Z,94.00
2018-12-13T19:21:13.757Z,93.80
2018-12-13T19:23:42.028Z,93.70
2018-12-13T19:26:10.381Z,93.50
2018-12-13T19:28:38.646Z,93.90
2018-12-13T19:31:09.688Z,94.10
2018-12-13T19:33:38.484Z,93.80
2018-12-13T19:36:08.212Z,93.90
2018-12-13T19:38:36.531Z,93.90
2018-12-13T19:41:05.729Z,93.60
2018-12-13T19:43:34.020Z,93.60
2018-12-13T19:46:02.413Z,93.70
2018-12-13T19:48:30.764Z,93.70
2018-12-13T19:51:00.052Z,93.40
2018-12-13T19:53:28.481Z,93.70
2018-12-13T19:55:56.862Z,93.80
2018-12-13T19:58:25.126Z,93.20
2018-12-13T20:00:53.345Z,93.00
2018-12-13T20:03:21.580Z,92.70
2018-12-13T20:05:49.989Z,93.10
2018-12-13T20:08:18.542Z,93.20
2018-12-13T20:10:46.870Z,93.10
2018-12-13T20:13:15.188Z,93.00
2018-12-13T20:15:43.680Z,93.00
2018-12-13T20:18:11.955Z,93.20
2018-12-13T20:20:40.335Z,93.20
2018-12-13T20:23:09.077Z,93.30
2018-12-13T20:25:37.313Z,93.20
2018-12-13T20:28:05.673Z,93.10
2018-12-13T20:30:34.897Z,92.80
2018-12-13T20:33:03.182Z,92.80
2018-12-13T20:35:38.041Z,92.80
2018-12-13T20:38:06.566Z,92.70
2018-12-13T20:40:34.899Z,92.80
2018-12-13T20:43:03.200Z,92.70
2018-12-13T20:45:31.529Z,92.60
2018-12-13T20:48:00.012Z,92.50
2018-12-13T20:50:28.730Z,92.90
2018-12-13T20:52:57.013Z,92.80
2018-12-13T20:55:25.920Z,92.50
2018-12-13T20:57:54.331Z,92.40
2018-12-13T21:00:22.673Z,92.40
2018-12-13T21:02:51.108Z,92.30
2018-12-13T21:05:20.246Z,92.50
2018-12-13T21:07:48.661Z,92.60
2018-12-13T21:10:17.041Z,92.30
2018-12-13T21:12:45.350Z,92.30
2018-12-13T21:15:14.459Z,92.80
2018-12-13T21:17:42.845Z,92.50
2018-12-13T21:20:11.121Z,92.60
2018-12-13T21:22:39.517Z,92.50
2018-12-13T21:25:07.942Z,92.30
2018-12-13T21:27:36.236Z,92.30
2018-12-13T21:30:05.601Z,91.90
2018-12-13T21:32:33.928Z,92.30
2018-12-13T21:35:02.252Z,92.40
2018-12-13T21:37:30.538Z,92.00
2018-12-13T21:39:58.854Z,92.30
2018-12-13T21:42:27.171Z,92.50
2018-12-13T21:44:55.564Z,92.40
2018-12-13T21:47:23.878Z,92.50
2018-12-13T21:49:52.305Z,92.40
2018-12-13T21:52:20.763Z,92.70
2018-12-13T21:54:49.484Z,92.90
2018-12-13T21:57:18.233Z,92.80
2018-12-13T21:59:46.725Z,92.40
2018-12-13T22:02:14.971Z,92.70
2018-12-13T22:04:43.335Z,92.90
2018-12-13T22:07:11.649Z,93.10
2018-12-13T22:09:39.966Z,92.80
2018-12-13T22:12:09.479Z,92.80
2018-12-13T22:14:37.989Z,93.00
2018-12-13T22:17:07.057Z,93.10
2018-12-13T22:19:35.737Z,93.20
2018-12-13T22:22:04.312Z,93.20
2018-12-13T22:24:32.739Z,93.00
2018-12-13T22:27:02.500Z,93.20
2018-12-13T22:29:31.745Z,92.80
2018-12-13T22:32:00.462Z,93.20
2018-12-13T22:34:28.995Z,93.40
2018-12-13T22:36:57.537Z,93.20
2018-12-13T22:39:25.772Z,93.30
2018-12-13T22:41:54.028Z,93.10
2018-12-13T22:44:22.310Z,93.10
2018-12-13T22:46:50.865Z,93.30
2018-12-13T22:49:19.234Z,93.20
2018-12-13T22:51:47.487Z,93.20
2018-12-13T22:54:15.768Z,93.10
2018-12-13T22:56:44.199Z,93.30
2018-12-13T22:59:12.560Z,93.30
2018-12-13T23:01:40.882Z,93.30
2018-12-13T23:04:10.045Z,93.40
2018-12-13T23:06:39.042Z,93.30
2018-12-13T23:09:07.658Z,93.80
2018-12-13T23:11:37.109Z,93.70
2018-12-13T23:14:05.978Z,93.60
2018-12-13T23:16:34.693Z,93.60
2018-12-13T23:19:03.036Z,93.60
2018-12-13T23:21:31.972Z,93.60
2018-12-13T23:24:00.333Z,93.70
2018-12-13T23:26:28.608Z,93.70
2018-12-13T23:28:57.452Z,93.60
2018-12-13T23:31:25.790Z,94.20
2018-12-13T23:33:54.056Z,94.10
2018-12-13T23:36:23.430Z,93.90
2018-12-13T23:38:51.798Z,94.10
2018-12-13T23:41:20.069Z,94.20
2018-12-13T23:43:48.644Z,94.00
2018-12-13T23:46:16.890Z,94.30
2018-12-13T23:48:45.194Z,94.60
2018-12-13T23:51:13.438Z,94.20
2018-12-13T23:53:41.686Z,94.10
2018-12-13T23:56:09.951Z,94.00
2018-12-13T23:58:39.600Z,94.10
